Time;durP1;ratioP1;P1;durP2;ratioP2;P2;SDS_P1;SDS_P2;PMS_P1;PMS_P2;Temp;Humidity;BMP_temperature;BMP_pressure;BME280_temperature;BME280_humidity;BME280_pressure;Samples;Min_cycle;Max_cycle;Signal;HPM_P1;HPM_P2
2021/07/05 00:00:18;;;;;;;1.88;1.50;;;;;;;22.50;100.00;96022.50;4968274;28;20070;-58
2021/07/05 00:02:48;;;;;;;2.70;1.50;;;;;;;22.50;100.00;96027.03;4970794;28;20050;-54
2021/07/05 00:05:17;;;;;;;3.65;1.55;;;;;;;22.70;100.00;96021.34;4966734;28;20035;-57
2021/07/05 00:07:47;;;;;;;2.63;1.58;;;;;;;22.64;100.00;96030.34;4967515;28;20540;-58
2021/07/05 00:10:21;;;;;;;4.25;1.45;;;;;;;22.66;100.00;96029.06;4969405;28;20563;-55
2021/07/05 00:12:50;;;;;;;2.65;1.50;;;;;;;22.25;100.00;96037.97;4963309;28;20469;-56
2021/07/05 00:15:21;;;;;;;2.80;1.60;;;;;;;22.33;100.00;96032.25;4967392;28;20093;-54
2021/07/05 00:17:52;;;;;;;2.53;1.60;;;;;;;22.65;100.00;96029.31;4976967;28;20473;-59
2021/07/05 00:20:21;;;;;;;3.25;1.63;;;;;;;22.48;100.00;96038.03;4980464;28;20536;-55
2021/07/05 00:22:49;;;;;;;1.92;1.33;;;;;;;23.11;100.00;96039.31;4986652;28;20066;-55
2021/07/05 00:25:19;;;;;;;3.10;1.30;;;;;;;21.98;100.00;96038.28;4985442;28;20078;-57
2021/07/05 00:27:48;;;;;;;1.60;1.30;;;;;;;22.22;100.00;96036.53;4977604;28;20054;-54
2021/07/05 00:30:17;;;;;;;2.65;1.30;;;;;;;22.70;100.00;96032.09;4980467;28;20066;-57
2021/07/05 00:32:46;;;;;;;3.30;1.30;;;;;;;22.45;100.00;96046.56;4987274;28;20073;-52
2021/07/05 00:35:17;;;;;;;3.10;1.27;;;;;;;22.71;100.00;96045.34;4986111;28;20069;-55
2021/07/05 00:37:46;;;;;;;3.53;1.30;;;;;;;23.09;100.00;96045.97;4979365;28;20085;-54
2021/07/05 00:40:16;;;;;;;2.97;1.52;;;;;;;23.04;100.00;96049.38;4986126;28;20475;-51
2021/07/05 00:42:46;;;;;;;;;;;;;;;23.05;100.00;96045.63;4973436;28;20062;-56
2021/07/05 00:45:19;;;;;;;2.70;1.30;;;;;;;22.39;100.00;96047.47;4969706;28;20313;-56
2021/07/05 00:47:47;;;;;;;3.15;1.30;;;;;;;22.83;100.00;96039.97;4968228;28;20067;-53
2021/07/05 00:50:18;;;;;;;3.60;1.40;;;;;;;21.72;100.00;96036.75;4970208;28;20521;-55
2021/07/05 00:52:50;;;;;;;2.85;1.50;;;;;;;22.71;100.00;96033.75;4982911;28;20081;-52
2021/07/05 00:55:19;;;;;;;5.20;1.55;;;;;;;22.50;100.00;96035.94;4981516;28;20077;-57
2021/07/05 00:57:49;;;;;;;3.65;1.25;;;;;;;21.62;100.00;96027.59;4978307;28;20066;-54
2021/07/05 01:00:19;;;;;;;1.48;1.23;;;;;;;22.67;100.00;96022.63;4986319;28;20123;-55
2021/07/05 01:02:48;;;;;;;1.40;1.30;;;;;;;21.59;100.00;96015.44;4978989;28;20415;-52
2021/07/05 01:05:17;;;;;;;2.30;1.20;;;;;;;22.16;100.00;96017.81;4976311;28;20119;-56
2021/07/05 01:07:46;;;;;;;5.15;1.40;;;;;;;21.67;100.00;96025.06;4977635;28;20085;-56
2021/07/05 01:10:16;;;;;;;1.88;1.40;;;;;;;21.83;100.00;96023.63;4992359;28;20089;-53
2021/07/05 01:12:44;;;;;;;1.35;1.25;;;;;;;22.64;100.00;96035.72;4987594;28;20077;-51
2021/07/05 01:15:17;;;;;;;3.17;1.50;;;;;;;22.06;100.00;96031.78;4985658;28;20077;-55
2021/07/05 01:17:46;;;;;;;4.28;1.50;;;;;;;22.46;100.00;96028.56;4984676;28;20549;-54
2021/07/05 01:20:17;;;;;;;7.05;1.67;;;;;;;21.90;100.00;96035.91;4965585;28;20036;-51
2021/07/05 01:22:46;;;;;;;;;;;;;;;22.05;100.00;96027.44;4961683;28;20561;-57
2021/07/05 01:25:17;;;;;;;3.05;1.50;;;;;;;21.25;100.00;96027.56;4994718;28;19969;-54
2021/07/05 01:27:45;;;;;;;;;;;;;;;21.52;100.00;96028.13;4991577;28;20074;-55
2021/07/05 01:30:16;;;;;;;4.80;1.30;;;;;;;22.60;100.00;96039.91;4988979;28;19968;-58
2021/07/05 01:32:45;;;;;;;8.20;1.50;;;;;;;22.51;100.00;96029.50;4980171;28;20070;-58
2021/07/05 01:35:15;;;;;;;2.67;1.38;;;;;;;23.20;100.00;96024.47;4973623;28;20062;-55
2021/07/05 01:37:43;;;;;;;1.83;1.60;;;;;;;23.02;100.00;96016.53;4986007;28;20074;-53
2021/07/05 01:40:17;;;;;;;1.90;1.58;;;;;;;22.29;100.00;96023.00;4989845;28;20090;-57
2021/07/05 01:42:49;;;;;;;5.95;1.40;;;;;;;22.07;100.00;96029.94;4973284;28;20543;-54
2021/07/05 01:45:19;;;;;;;2.90;1.40;;;;;;;21.47;100.00;96031.50;4984280;28;20460;-52
2021/07/05 01:47:47;;;;;;;2.22;1.35;;;;;;;22.86;100.00;96009.94;4980817;28;20066;-53
2021/07/05 01:50:16;;;;;;;2.83;1.65;;;;;;;22.10;100.00;96026.78;4973608;28;20058;-55
2021/07/05 01:52:45;;;;;;;4.10;1.60;;;;;;;22.75;100.00;96016.13;4981820;28;20588;-58
2021/07/05 01:55:16;;;;;;;2.80;1.60;;;;;;;22.66;100.00;96017.50;4970224;28;20082;-54
2021/07/05 01:57:44;;;;;;;1.85;1.40;;;;;;;22.32;100.00;96025.25;4964290;28;20078;-53
2021/07/05 02:00:15;;;;;;;3.42;1.70;;;;;;;21.55;100.00;96025.00;4977717;28;20065;-50
2021/07/05 02:02:43;;;;;;;;;;;;;;;21.52;100.00;96018.22;4974706;28;20074;-55
2021/07/05 02:05:17;;;;;;;5.70;1.55;;;;;;;22.16;100.00;96018.69;4972031;28;19964;-54
2021/07/05 02:07:46;;;;;;;4.03;1.52;;;;;;;22.44;100.00;96023.44;4974192;28;20477;-52
2021/07/05 02:10:18;;;;;;;2.42;1.40;;;;;;;21.89;100.00;96023.56;4984844;28;20150;-51
2021/07/05 02:12:47;;;;;;;1.92;1.45;;;;;;;22.33;100.00;96028.75;4983919;28;20069;-53
2021/07/05 02:15:17;;;;;;;3.03;1.63;;;;;;;22.39;100.00;96034.03;4989990;28;20046;-54
2021/07/05 02:17:45;;;;;;;1.73;1.60;;;;;;;22.16;100.00;96026.72;4988652;28;20066;-54
2021/07/05 02:20:16;;;;;;;5.63;1.60;;;;;;;22.82;100.00;96014.13;4993278;28;20066;-53
2021/07/05 02:22:45;;;;;;;4.18;1.80;;;;;;;22.15;100.00;96011.66;4987924;28;20090;-57
2021/07/05 02:25:16;;;;;;;2.42;1.65;;;;;;;23.22;100.00;96002.69;4971851;28;20079;-53
2021/07/05 02:27:44;;;;;;;1.85;1.50;;;;;;;23.29;100.00;96003.38;4965307;28;20078;-59
2021/07/05 02:30:15;;;;;;;3.20;1.70;;;;;;;22.76;100.00;96009.69;4975775;28;20073;-57
2021/07/05 02:32:44;;;;;;;5.32;1.70;;;;;;;22.47;100.00;96012.22;4984815;28;21759;-56
2021/07/05 02:35:16;;;;;;;3.33;1.70;;;;;;;23.08;100.00;96009.38;4989173;28;20076;-54
2021/07/05 02:37:45;;;;;;;3.10;1.80;;;;;;;22.17;100.00;96017.63;4990346;28;20089;-53
2021/07/05 02:40:17;;;;;;;2.97;1.70;;;;;;;22.30;100.00;96019.31;4971430;28;20113;-58
2021/07/05 02:42:46;;;;;;;4.38;1.80;;;;;;;22.13;100.00;96023.66;4984463;28;20520;-59
2021/07/05 02:45:17;;;;;;;3.75;1.85;;;;;;;22.78;100.00;96022.88;4986504;28;20066;-55
2021/07/05 02:47:45;;;;;;;4.65;1.77;;;;;;;22.00;100.00;96025.47;4981080;28;20058;-52
2021/07/05 02:50:14;;;;;;;2.45;1.80;;;;;;;22.60;100.00;96029.16;4980081;28;20074;-58
2021/07/05 02:52:42;;;;;;;2.75;1.60;;;;;;;22.23;100.00;96023.94;4967279;28;20078;-60
2021/07/05 02:55:12;;;;;;;4.20;1.67;;;;;;;22.50;100.00;96014.44;4990372;28;20078;-54
2021/07/05 02:57:43;;;;;;;3.70;1.73;;;;;;;23.06;100.00;96012.31;4971540;28;20066;-57
2021/07/05 03:00:14;;;;;;;6.97;1.80;;;;;;;23.46;100.00;96008.84;4977556;28;20076;-54
2021/07/05 03:02:44;;;;;;;2.17;1.70;;;;;;;23.12;100.00;96010.53;4982759;28;20085;-59
2021/07/05 03:05:15;;;;;;;6.30;1.83;;;;;;;23.11;100.00;96019.66;4983807;28;20038;-58
2021/07/05 03:07:44;;;;;;;5.07;1.80;;;;;;;23.24;100.00;96014.03;4987004;28;20088;-52
2021/07/05 03:10:14;;;;;;;2.90;1.70;;;;;;;22.38;100.00;96018.97;4989971;28;20100;-54
2021/07/05 03:12:44;;;;;;;3.17;1.90;;;;;;;23.22;100.00;96011.56;4972876;28;20070;-55
2021/07/05 03:15:16;;;;;;;2.00;1.70;;;;;;;23.28;100.00;96000.94;4966064;28;20074;-52
2021/07/05 03:17:45;;;;;;;1.92;1.67;;;;;;;23.42;100.00;96005.81;4966500;28;20082;-56
2021/07/05 03:20:17;;;;;;;2.80;1.90;;;;;;;23.10;100.00;96007.28;4965436;28;20224;-57
2021/07/05 03:22:47;;;;;;;3.28;1.80;;;;;;;23.85;100.00;95996.50;4985275;28;21193;-56
2021/07/05 03:25:18;;;;;;;3.25;1.70;;;;;;;22.55;100.00;96012.94;4984476;28;20088;-56
2021/07/05 03:27:49;;;;;;;4.00;1.80;;;;;;;22.44;100.00;96022.59;4985560;28;20070;-56
2021/07/05 03:30:19;;;;;;;1.77;1.55;;;;;;;23.03;100.00;96020.84;4986486;28;20069;-51
2021/07/05 03:32:48;;;;;;;5.93;2.15;;;;;;;23.00;100.00;96031.25;4986488;28;20089;-54
2021/07/05 03:35:18;;;;;;;2.00;1.52;;;;;;;23.45;100.00;96028.75;4980699;28;20538;-56
2021/07/05 03:37:48;;;;;;;2.92;1.70;;;;;;;23.06;100.00;96011.50;4970270;28;20078;-55
2021/07/05 03:40:17;;;;;;;;;;;;;;;23.05;100.00;96004.47;4992702;28;20469;-59
2021/07/05 03:42:48;;;;;;;3.15;1.70;;;;;;;22.80;100.00;96010.03;4982344;28;19972;-56
2021/07/05 03:45:19;;;;;;;2.55;1.90;;;;;;;23.28;100.00;96012.50;4985405;28;20066;-56
2021/07/05 03:47:48;;;;;;;2.78;1.65;;;;;;;22.75;100.00;96016.13;4985027;28;20062;-55
2021/07/05 03:50:17;;;;;;;4.22;1.90;;;;;;;22.41;100.00;96018.50;4990571;28;20069;-53
2021/07/05 03:52:46;;;;;;;4.43;2.10;;;;;;;23.26;100.00;96024.56;4969956;28;20121;-57
2021/07/05 03:57:53;;;;;;;4.30;2.00;;;;;;;23.72;100.00;96018.31;4986104;28;20049;-59
2021/07/05 04:00:25;;;;;;;5.07;2.30;;;;;;;25.91;90.95;96018.41;4991537;28;20074;-60
2021/07/05 04:02:53;;;;;;;4.03;1.75;;;;;;;26.97;74.55;96025.13;4978533;28;20066;-57
2021/07/05 04:05:21;;;;;;;3.03;1.60;;;;;;;25.36;93.57;96026.56;4973478;28;20073;-60
2021/07/05 04:07:50;;;;;;;4.57;1.70;;;;;;;26.50;80.20;96032.03;4988540;28;20625;-57
2021/07/05 04:10:19;;;;;;;2.28;1.55;;;;;;;25.54;89.37;96018.19;4988152;28;20081;-58
2021/07/05 04:12:47;;;;;;;5.40;2.03;;;;;;;27.38;70.37;96037.06;4969160;28;20066;-59
2021/07/05 04:15:18;;;;;;;5.53;1.77;;;;;;;28.43;62.41;96033.50;4982704;28;20066;-58
2021/07/05 04:17:46;;;;;;;3.75;1.90;;;;;;;29.24;56.18;96031.91;4977001;28;20497;-57
2021/07/05 04:20:17;;;;;;;2.83;1.63;;;;;;;31.02;48.22;96029.50;4991831;28;20066;-56
2021/07/05 04:22:46;;;;;;;3.60;1.70;;;;;;;30.75;48.86;96033.47;4986286;28;20085;-60
2021/07/05 04:25:16;;;;;;;5.10;1.70;;;;;;;31.26;47.30;96029.56;4995180;28;20082;-55
2021/07/05 04:27:46;;;;;;;2.10;1.63;;;;;;;31.84;44.55;96022.13;4987172;28;20073;-57
2021/07/05 04:30:16;;;;;;;2.83;1.80;;;;;;;31.54;44.49;96019.75;4990706;28;20080;-58
2021/07/05 04:32:46;;;;;;;3.70;1.55;;;;;;;31.14;45.99;96022.59;4995718;28;20070;-56
2021/07/05 04:35:18;;;;;;;3.95;1.70;;;;;;;30.84;nan;96028.28;4986758;28;20066;-60
2021/07/05 04:37:48;;;;;;;1.88;1.60;;;;;;;32.88;41.40;96022.38;4992770;28;20046;-58
2021/07/05 04:40:18;;;;;;;2.95;1.90;;;;;;;31.55;43.59;96026.81;4979412;28;20085;-59
2021/07/05 04:42:47;;;;;;;4.50;1.70;;;;;;;30.63;46.87;96033.84;4989317;28;20107;-57
2021/07/05 04:45:19;;;;;;;2.78;1.60;;;;;;;32.64;42.27;96033.41;4989697;28;20578;-57
2021/07/05 04:47:49;;;;;;;5.40;1.80;;;;;;;33.13;41.16;96030.19;4992115;28;20069;-58
2021/07/05 04:50:18;;;;;;;7.78;4.40;;;;;;;32.76;41.19;96031.03;4991500;28;20058;-54
2021/07/05 04:52:46;;;;;;;3.92;2.10;;;;;;;32.91;41.32;96025.34;4993331;28;20093;-55
2021/07/05 04:55:16;;;;;;;2.10;2.00;;;;;;;32.56;42.67;96034.91;4988186;28;20073;-57
2021/07/05 04:57:46;;;;;;;6.28;1.90;;;;;;;33.42;40.92;96029.16;4994717;28;20054;-58
2021/07/05 05:00:18;;;;;;;2.85;1.80;;;;;;;34.61;38.33;96013.59;4995478;28;20065;-61
2021/07/05 05:03:00;;;;;;;4.95;2.08;;;;;;;35.17;36.99;96011.44;4991898;28;20074;-60
2021/07/05 05:05:29;;;;;;;3.30;1.88;;;;;;;33.32;39.39;96011.00;4994189;28;20217;-60
2021/07/05 05:07:58;;;;;;;4.28;2.08;;;;;;;34.77;38.14;96007.78;4994140;28;20086;-60
2021/07/05 05:10:26;;;;;;;4.55;2.08;;;;;;;32.71;40.40;96012.00;4998944;28;20078;-58
2021/07/05 05:12:55;;;;;;;3.42;1.60;;;;;;;31.13;45.32;96010.03;4973741;28;20471;-60
2021/07/05 05:15:23;;;;;;;4.38;1.50;;;;;;;31.84;44.58;95992.13;4971074;28;20063;-58
2021/07/05 05:17:52;;;;;;;2.65;2.22;;;;;;;32.46;43.95;96011.28;4981847;28;20077;-58
2021/07/05 05:20:23;;;;;;;3.05;1.90;;;;;;;32.81;41.63;96023.56;4987385;28;20070;-59
2021/07/05 05:22:52;;;;;;;2.92;2.10;;;;;;;32.39;43.05;96022.53;4973799;28;20083;-60
2021/07/05 05:25:21;;;;;;;5.75;2.00;;;;;;;32.37;44.24;96010.28;5000753;28;20132;-58
2021/07/05 05:27:51;;;;;;;11.17;1.90;;;;;;;31.52;48.66;96005.59;4995402;28;20075;-59
2021/07/05 05:30:21;;;;;;;3.15;1.10;;;;;;;28.96;58.21;96008.81;4988543;28;20066;-59
2021/07/05 05:32:49;;;;;;;1.58;1.08;;;;;;;29.51;55.74;96007.94;4997012;28;20089;-58
2021/07/05 05:35:21;;;;;;;3.10;1.17;;;;;;;27.54;72.40;96010.91;4993404;28;20065;-56
2021/07/05 05:37:52;;;;;;;2.22;1.40;;;;;;;27.81;73.39;96002.66;4991315;28;20100;-57
2021/07/05 05:40:21;;;;;;;4.20;1.30;;;;;;;28.01;71.63;96009.22;4993752;28;20093;-55
2021/07/05 05:42:50;;;;;;;2.55;1.60;;;;;;;27.35;80.26;96004.28;4995933;28;20495;-58
2021/07/05 05:45:18;;;;;;;2.78;1.55;;;;;;;27.55;77.26;96003.59;4994798;28;20495;-57
2021/07/05 05:47:47;;;;;;;2.17;1.48;;;;;;;27.57;77.56;96006.84;5005329;28;21045;-56
2021/07/05 05:50:16;;;;;;;2.08;1.45;;;;;;;27.90;80.78;96003.75;4986123;28;20073;-59
2021/07/05 05:52:45;;;;;;;1.73;1.48;;;;;;;27.57;78.97;96007.66;4973407;28;20062;-58
2021/07/05 05:55:16;;;;;;;1.87;1.60;;;;;;;27.77;80.59;96001.56;4994006;28;20547;-60
2021/07/05 05:57:45;;;;;;;1.95;1.40;;;;;;;30.05;60.64;96009.13;4990048;28;20062;-56
2021/07/05 06:00:17;;;;;;;2.08;1.30;;;;;;;29.98;56.05;96020.31;4993695;28;20062;-57
2021/07/05 06:02:46;;;;;;;4.90;1.33;;;;;;;28.90;66.13;96012.63;4991153;28;20080;-59
2021/07/05 06:05:15;;;;;;;1.50;1.30;;;;;;;27.41;77.75;96022.19;4995341;28;20501;-57
2021/07/05 06:07:47;;;;;;;3.38;1.33;;;;;;;30.74;59.01;96007.38;4995776;28;20437;-59
2021/07/05 06:10:18;;;;;;;3.92;1.40;;;;;;;29.06;64.39;96014.28;4996176;28;20089;-58
2021/07/05 06:12:47;;;;;;;2.17;1.20;;;;;;;27.32;75.31;96015.63;4989491;28;20066;-56
2021/07/05 06:15:17;;;;;;;2.13;1.33;;;;;;;28.19;72.89;96014.16;4991972;28;20406;-58
2021/07/05 06:17:46;;;;;;;1.73;1.30;;;;;;;27.29;77.44;96022.41;4993846;28;20069;-59
2021/07/05 06:20:15;;;;;;;2.42;1.30;;;;;;;29.49;59.84;96012.84;4994063;28;20842;-58
2021/07/05 06:23:06;;;;;;;1.65;1.23;;;;;;;26.68;74.81;96027.31;4994163;28;20514;-56
2021/07/05 06:25:36;;;;;;;3.22;1.30;;;;;;;28.39;69.35;96024.28;4993332;28;20081;-60
2021/07/05 06:28:05;;;;;;;1.20;1.08;;;;;;;27.44;74.35;96027.91;4996766;28;20069;-58
2021/07/05 06:30:33;;;;;;;2.70;1.23;;;;;;;28.74;66.28;96025.41;4974244;28;20078;-57
2021/07/05 06:33:02;;;;;;;1.92;1.20;;;;;;;27.83;69.82;96026.75;4985512;28;20457;-58
2021/07/05 06:35:31;;;;;;;1.35;1.25;;;;;;;28.35;66.58;96032.06;4996946;28;20535;-57
2021/07/05 06:37:59;;;;;;;1.35;1.17;;;;;;;27.80;70.88;96036.22;4991649;28;20082;-55
2021/07/05 06:40:28;;;;;;;3.17;1.17;;;;;;;27.02;76.25;96043.31;4998320;28;20061;-58
2021/07/05 06:42:58;;;;;;;1.52;1.30;;;;;;;26.84;80.25;96037.22;5012910;28;20070;-58
2021/07/05 06:45:26;;;;;;;2.13;1.42;;;;;;;27.64;75.75;96034.50;4992533;28;20066;-58
2021/07/05 06:47:55;;;;;;;1.52;1.23;;;;;;;27.23;72.41;96031.56;4991065;28;20070;-59
2021/07/05 06:50:24;;;;;;;1.98;1.20;;;;;;;27.03;86.66;96029.50;4983593;28;20085;-59
2021/07/05 06:52:53;;;;;;;2.05;1.20;;;;;;;27.66;71.63;96024.22;4977556;28;20079;-56
2021/07/05 06:55:21;;;;;;;4.55;1.40;;;;;;;27.77;78.93;96027.81;4995336;28;20382;-55
2021/07/05 06:57:50;;;;;;;3.20;1.25;;;;;;;26.52;80.30;96029.88;4974036;28;20082;-59
2021/07/05 07:00:22;;;;;;;1.67;1.02;;;;;;;27.84;76.72;96025.69;4975746;28;20506;-57
2021/07/05 07:02:51;;;;;;;2.55;1.35;;;;;;;27.41;77.73;96019.47;4983928;28;20077;-60
2021/07/05 07:05:21;;;;;;;4.80;1.30;;;;;;;27.14;78.80;96011.47;4991105;28;20085;-59
2021/07/05 07:07:51;;;;;;;1.88;1.20;;;;;;;26.73;80.84;96020.06;4992915;28;20110;-58
2021/07/05 07:10:20;;;;;;;1.95;1.23;;;;;;;27.79;74.53;96012.94;4978779;28;20429;-56
2021/07/05 07:12:49;;;;;;;2.33;1.30;;;;;;;27.88;68.97;96014.06;4989497;28;20080;-58
2021/07/05 07:15:44;;;;;;;1.20;1.10;;;;;;;27.96;71.08;96023.56;4999302;28;20058;-59
2021/07/05 07:18:32;;;;;;;1.75;1.23;;;;;;;28.03;71.50;96015.19;4977244;28;20054;-58
2021/07/05 07:21:02;;;;;;;2.33;1.20;;;;;;;28.22;67.51;96010.91;4981581;28;20077;-58
2021/07/05 07:23:30;;;;;;;3.47;1.30;;;;;;;27.38;74.03;96012.69;4996582;28;20067;-57
2021/07/05 07:25:58;;;;;;;1.15;1.02;;;;;;;27.98;65.85;96009.72;4991452;28;20074;-58
2021/07/05 07:28:27;;;;;;;2.42;1.25;;;;;;;28.80;64.09;96008.00;4992370;28;20456;-56
2021/07/05 07:30:57;;;;;;;1.65;1.00;;;;;;;28.96;62.88;96006.13;4991376;28;20089;-56
2021/07/05 07:33:25;;;;;;;1.65;1.17;;;;;;;28.82;62.61;96009.38;4989517;28;20101;-56
2021/07/05 07:35:56;;;;;;;1.83;1.20;;;;;;;29.61;55.28;96000.88;4988801;28;20089;-55
2021/07/05 07:38:25;;;;;;;2.03;1.25;;;;;;;28.44;63.82;96010.72;4992103;28;20076;-60
2021/07/05 07:40:54;;;;;;;3.13;1.20;;;;;;;30.24;53.43;96003.88;4995825;28;20431;-58
2021/07/05 07:43:23;;;;;;;1.95;1.10;;;;;;;29.10;58.87;95991.72;4990844;28;20070;-59
2021/07/05 07:45:51;;;;;;;2.55;1.35;;;;;;;31.00;50.56;95999.00;4994302;28;20084;-59
2021/07/05 07:48:21;;;;;;;1.83;1.20;;;;;;;29.91;53.52;95997.25;4989223;28;20065;-58
2021/07/05 07:50:50;;;;;;;1.33;1.13;;;;;;;31.03;49.12;95993.00;4993002;28;20069;-58
2021/07/05 07:53:18;;;;;;;2.00;1.00;;;;;;;30.75;47.51;95989.91;4991532;28;20072;-57
2021/07/05 07:55:46;;;;;;;1.55;1.15;;;;;;;31.10;46.09;95980.66;4992312;28;20077;-58
2021/07/05 07:58:15;;;;;;;3.80;1.20;;;;;;;32.73;43.74;95977.03;4992940;28;20440;-58
2021/07/05 08:00:43;;;;;;;4.28;1.20;;;;;;;31.63;44.75;95977.13;4988628;28;20505;-61
2021/07/05 08:03:12;;;;;;;2.47;1.20;;;;;;;30.95;45.35;95981.63;4987287;28;20460;-59
2021/07/05 08:05:42;;;;;;;2.22;1.23;;;;;;;30.49;45.99;95975.72;4995264;28;20070;-60
2021/07/05 08:08:12;;;;;;;2.30;1.27;;;;;;;31.19;48.04;95972.69;4992464;28;20076;-60
2021/07/05 08:10:41;;;;;;;1.55;1.08;;;;;;;32.50;44.36;95981.47;4987336;28;20378;-56
2021/07/05 08:13:09;;;;;;;1.67;1.17;;;;;;;29.49;52.19;95982.13;4966516;28;20456;-58
2021/07/05 08:15:38;;;;;;;1.45;1.20;;;;;;;31.15;49.06;95974.34;4988690;28;20157;-55
2021/07/05 08:18:07;;;;;;;1.25;1.00;;;;;;;31.93;44.63;95981.41;4993604;28;20075;-58
2021/07/05 08:20:36;;;;;;;1.20;0.93;;;;;;;30.05;46.84;95990.09;4989270;28;20077;-57
2021/07/05 08:23:06;;;;;;;1.13;0.95;;;;;;;30.58;45.38;95994.97;4994036;28;20070;-59
2021/07/05 08:25:35;;;;;;;2.08;1.17;;;;;;;29.48;52.37;95996.81;5004443;28;20070;-56
2021/07/05 08:28:04;;;;;;;1.77;1.10;;;;;;;29.32;51.23;95996.06;5004202;28;20065;-60
2021/07/05 08:30:32;;;;;;;1.60;1.20;;;;;;;29.97;52.65;95993.38;4987770;28;20497;-59
2021/07/05 08:33:01;;;;;;;1.30;1.13;;;;;;;30.80;49.83;95997.25;4978884;28;20078;-59
2021/07/05 08:35:30;;;;;;;2.97;1.30;;;;;;;29.81;49.81;95992.66;4969637;28;20517;-59
2021/07/05 08:37:58;;;;;;;1.40;1.30;;;;;;;32.39;42.91;95978.06;4971415;28;20074;-56
2021/07/05 08:40:28;;;;;;;2.47;1.00;;;;;;;32.33;40.68;95984.69;4975709;28;20070;-57
2021/07/05 08:42:58;;;;;;;1.83;1.20;;;;;;;33.46;39.18;95978.22;4990767;28;20062;-58
2021/07/05 08:45:27;;;;;;;1.95;1.10;;;;;;;32.07;42.56;95971.44;4986029;28;20074;-55
2021/07/05 08:47:57;;;;;;;1.48;1.00;;;;;;;30.72;42.80;95977.69;4990356;28;20069;-57
2021/07/05 08:50:26;;;;;;;;;;;;;;;31.42;42.63;95971.13;4988398;28;20109;-57
2021/07/05 08:52:55;;;;;;;2.73;1.47;;;;;;;30.27;47.56;95974.22;4988473;28;19971;-56
2021/07/05 08:55:25;;;;;;;1.92;1.10;;;;;;;31.04;44.67;95976.38;4990943;28;20500;-58
2021/07/05 08:57:55;;;;;;;3.10;1.00;;;;;;;31.80;45.27;95972.03;4988564;28;20078;-59
2021/07/05 09:00:25;;;;;;;1.63;1.10;;;;;;;32.42;41.06;95979.41;4975239;28;20106;-58
2021/07/05 09:02:56;;;;;;;2.50;1.30;;;;;;;32.40;41.51;95976.94;4980198;28;20457;-60
2021/07/05 09:05:24;;;;;;;1.20;1.00;;;;;;;32.38;39.75;95979.16;4990548;28;20532;-57
2021/07/05 09:07:59;;;;;;;2.72;1.08;;;;;;;30.62;45.13;95974.22;4996656;28;20066;-60
2021/07/05 09:10:29;;;;;;;2.22;1.10;;;;;;;32.09;41.34;95973.84;4994008;28;20445;-60
2021/07/05 09:13:09;;;;;;;;;;;;;;;33.30;38.52;95977.69;4970986;28;20054;-58
2021/07/05 09:15:40;;;;;;;1.48;1.20;;;;;;;32.78;39.98;95974.19;4980940;28;20414;-59
2021/07/05 09:18:42;;;;;;;1.17;1.00;;;;;;;34.31;37.84;95974.03;4990219;28;20534;-60
2021/07/05 09:21:29;;;;;;;3.55;1.27;;;;;;;31.10;45.23;95969.75;4951227;28;20407;-58
2021/07/05 09:24:02;;;;;;;2.08;1.20;;;;;;;31.04;42.63;95976.38;4985369;28;20070;-54
2021/07/05 09:26:33;;;;;;;1.45;1.30;;;;;;;31.57;43.52;95970.94;4994010;28;20064;-60
2021/07/05 09:29:05;;;;;;;2.15;1.10;;;;;;;32.17;42.34;95973.19;4994836;28;20441;-58
2021/07/05 09:31:42;;;;;;;1.30;1.10;;;;;;;31.00;45.64;95966.31;4996604;28;20072;-57
2021/07/05 09:34:20;;;;;;;4.38;1.20;;;;;;;31.76;44.65;95964.69;4992608;28;20058;-59
2021/07/05 09:36:50;;;;;;;1.20;1.00;;;;;;;33.81;39.13;95976.72;4991103;28;20085;-58
2021/07/05 09:39:20;;;;;;;1.98;1.05;;;;;;;32.02;41.02;95978.84;4979476;28;20058;-60
2021/07/05 09:41:51;;;;;;;1.73;1.00;;;;;;;31.74;41.29;95978.63;4981151;28;20062;-58
2021/07/05 09:44:23;;;;;;;3.28;1.35;;;;;;;32.20;42.96;95978.03;4993998;28;20069;-57
2021/07/05 09:46:55;;;;;;;2.05;1.25;;;;;;;32.50;42.07;95968.63;4989944;28;20070;-58
2021/07/05 09:49:29;;;;;;;2.15;1.20;;;;;;;31.63;43.55;95968.97;5000399;28;20073;-58
2021/07/05 09:52:16;;;;;;;1.20;1.00;;;;;;;31.78;43.11;95965.22;4996074;28;20063;-58
2021/07/05 09:54:47;;;;;;;1.20;1.10;;;;;;;33.17;40.47;95957.41;4992441;28;20062;-59
2021/07/05 09:59:53;;;;;;;1.65;0.80;;;;;;;31.86;42.54;95964.56;4975039;28;20070;-54
2021/07/05 10:02:22;;;;;;;1.75;1.08;;;;;;;31.38;41.96;95962.72;4966866;28;20093;-54
2021/07/05 10:04:50;;;;;;;1.08;0.90;;;;;;;31.51;40.97;95963.09;4970078;28;20174;-53
2021/07/05 10:07:18;;;;;;;3.10;0.95;;;;;;;32.07;41.77;95962.41;4992611;28;20066;-55
2021/07/05 10:09:48;;;;;;;2.45;1.10;;;;;;;30.60;42.13;95969.09;4978609;28;20062;-56
2021/07/05 10:12:23;;;;;;;1.45;1.00;;;;;;;33.76;37.60;95961.22;4971029;28;20073;-52
2021/07/05 10:14:58;;;;;;;1.10;1.00;;;;;;;35.01;35.06;95960.88;4971781;28;20078;-55
2021/07/05 10:17:28;;;;;;;1.40;1.00;;;;;;;32.92;37.64;95968.78;4995034;28;20154;-54
2021/07/05 10:19:57;;;;;;;3.45;1.10;;;;;;;33.00;40.06;95962.66;4976770;28;20535;-54
2021/07/05 10:22:26;;;;;;;2.10;1.00;;;;;;;33.00;42.28;95963.47;4993029;28;20084;-55
2021/07/05 10:24:55;;;;;;;3.45;1.10;;;;;;;31.67;39.75;95959.91;4976226;28;20071;-56
2021/07/05 10:27:24;;;;;;;1.40;1.05;;;;;;;33.53;38.05;95963.06;4976049;28;20038;-55
2021/07/05 10:29:55;;;;;;;3.40;1.00;;;;;;;33.99;38.10;95966.75;4979997;28;20070;-54
2021/07/05 10:32:25;;;;;;;1.23;0.90;;;;;;;33.33;41.44;95969.69;4983867;28;20085;-56
2021/07/05 10:34:54;;;;;;;;;;;;;;;31.81;42.03;95972.81;4973346;28;20062;-58
2021/07/05 10:37:32;;;;;;;2.47;0.93;;;;;;;32.23;43.68;95976.66;4978166;28;20066;-56
2021/07/05 10:40:01;;;;;;;2.83;1.20;;;;;;;31.08;41.11;95971.97;4987914;28;20077;-55
2021/07/05 10:42:33;;;;;;;2.58;0.80;;;;;;;32.80;37.70;95974.72;4971962;28;20159;-55
2021/07/05 10:45:02;;;;;;;1.67;1.20;;;;;;;30.85;41.09;95984.44;4987558;28;20084;-55
2021/07/05 10:47:53;;;;;;;4.17;1.37;;;;;;;31.72;40.90;95977.28;4978192;28;20062;-53
2021/07/05 10:50:47;;;;;;;2.63;1.20;;;;;;;31.08;41.89;95974.69;4970437;28;20073;-54
2021/07/05 10:53:17;;;;;;;1.52;0.93;;;;;;;31.01;43.93;95979.66;4966334;28;20445;-55
2021/07/05 10:55:46;;;;;;;;;;;;;;;30.85;44.30;95983.63;4981251;28;20086;-57
2021/07/05 10:58:18;;;;;;;1.67;1.10;;;;;;;30.24;43.93;95984.84;4991298;28;19972;-57
2021/07/05 11:00:48;;;;;;;1.00;1.00;;;;;;;31.80;44.12;95971.22;4972817;28;20078;-57
2021/07/05 11:03:35;;;;;;;;;;;;;;;30.36;44.31;95976.34;4986783;28;20543;-54
2021/07/05 11:06:08;;;;;;;1.45;0.98;;;;;;;30.11;45.48;95969.94;4991208;28;19968;-53
2021/07/05 11:08:42;;;;;;;3.30;1.10;;;;;;;30.09;48.50;95977.56;4975921;28;20074;-54
2021/07/05 11:11:21;;;;;;;2.60;1.10;;;;;;;30.26;51.43;95982.66;4969601;28;20472;-57
2021/07/05 11:14:09;;;;;;;3.90;1.15;;;;;;;30.64;50.42;95989.19;4988580;28;20077;-55
2021/07/05 11:17:04;;;;;;;2.00;1.05;;;;;;;30.49;49.53;95976.53;4972149;28;20055;-57
2021/07/05 11:19:41;;;;;;;1.10;1.00;;;;;;;30.55;49.46;95977.28;4988314;28;20074;-58
2021/07/05 11:22:17;;;;;;;1.08;0.90;;;;;;;31.73;46.16;95976.19;4988129;28;20326;-55
2021/07/05 11:25:42;;;;;;;1.30;1.02;;;;;;;30.37;45.87;95984.22;4974043;28;20543;-57
2021/07/05 11:28:19;;;;;;;1.10;1.00;;;;;;;31.61;42.48;95980.13;4977012;28;20082;-56
2021/07/05 11:30:49;;;;;;;1.30;0.95;;;;;;;32.14;42.84;95977.31;4971960;28;20062;-56
2021/07/05 11:33:25;;;;;;;2.90;1.00;;;;;;;32.00;41.74;95968.22;4965915;28;20070;-55
2021/07/05 11:35:58;;;;;;;2.25;1.00;;;;;;;31.65;40.14;95958.56;4973358;28;20066;-57
2021/07/05 11:38:38;;;;;;;1.23;1.10;;;;;;;33.19;37.42;95955.19;4978255;28;20066;-58
2021/07/05 11:41:25;;;;;;;2.20;1.00;;;;;;;32.82;38.32;95953.38;4989227;28;20066;-55
2021/07/05 11:43:59;;;;;;;1.48;1.00;;;;;;;34.39;38.65;95950.59;4970179;28;20075;-51
2021/07/05 11:46:47;;;;;;;3.28;1.70;;;;;;;35.75;33.74;95950.09;4974279;28;20503;-57
2021/07/05 11:49:19;;;;;;;1.33;1.02;;;;;;;34.63;36.69;95951.13;4986235;28;20046;-57
2021/07/05 11:51:50;;;;;;;1.35;1.10;;;;;;;32.32;38.44;95948.41;4972542;28;20066;-57
2021/07/05 11:54:21;;;;;;;1.15;0.93;;;;;;;33.59;37.24;95947.38;4984546;28;20543;-55
2021/07/05 11:56:51;;;;;;;1.25;0.90;;;;;;;32.66;37.76;95952.84;4978669;28;20077;-60